sensor_id;sensor_type;location;lat;lon;timestamp;pressure;altitude;pressure_sealevel;temperature;humidity
64292;BME280;50628;51.008;13.658;2023-04-08T00:02:56;100044.50;;;4.74;100.00
64292;BME280;50628;51.008;13.658;2023-04-08T00:08:00;100043.56;;;4.75;100.00
64292;BME280;50628;51.008;13.658;2023-04-08T00:13:01;100035.06;;;4.73;100.00
64292;BME280;50628;51.008;13.658;2023-04-08T00:18:03;100039.56;;;4.69;100.00
64292;BME280;50628;51.008;13.658;2023-04-08T00:23:07;100041.31;;;4.69;100.00
64292;BME280;50628;51.008;13.658;2023-04-08T00:28:08;100032.59;;;4.71;100.00
64292;BME280;50628;51.008;13.658;2023-04-08T00:33:10;100039.00;;;4.80;100.00
64292;BME280;50628;51.008;13.658;2023-04-08T00:38:14;100038.41;;;4.75;100.00
64292;BME280;50628;51.008;13.658;2023-04-08T00:43:16;100038.34;;;4.76;100.00
64292;BME280;50628;51.008;13.658;2023-04-08T00:48:20;100039.00;;;4.80;100.00
64292;BME280;50628;51.008;13.658;2023-04-08T00:53:23;100038.47;;;4.73;100.00
64292;BME280;50628;51.008;13.658;2023-04-08T00:58:25;100038.59;;;4.88;100.00
64292;BME280;50628;51.008;13.658;2023-04-08T01:03:35;100029.50;;;4.81;100.00
64292;BME280;50628;51.008;13.658;2023-04-08T01:08:43;100038.72;;;4.69;100.00
64292;BME280;50628;51.008;13.658;2023-04-08T01:13:48;100028.19;;;4.56;100.00
64292;BME280;50628;51.008;13.658;2023-04-08T01:18:55;100030.16;;;4.51;100.00
64292;BME280;50628;51.008;13.658;2023-04-08T01:24:04;100029.53;;;4.63;100.00
64292;BME280;50628;51.008;13.658;2023-04-08T01:29:09;100027.69;;;4.83;100.00
64292;BME280;50628;51.008;13.658;2023-04-08T01:34:14;100028.63;;;4.82;100.00
64292;BME280;50628;51.008;13.658;2023-04-08T01:39:18;100033.88;;;4.96;100.00
64292;BME280;50628;51.008;13.658;2023-04-08T01:44:25;100030.75;;;5.07;100.00
64292;BME280;50628;51.008;13.658;2023-04-08T01:49:27;100031.16;;;5.15;100.00
64292;BME280;50628;51.008;13.658;2023-04-08T01:54:31;100026.16;;;4.78;100.00
64292;BME280;50628;51.008;13.658;2023-04-08T01:59:37;100030.06;;;5.19;100.00
64292;BME280;50628;51.008;13.658;2023-04-08T02:04:40;100022.97;;;4.91;100.00
64292;BME280;50628;51.008;13.658;2023-04-08T02:09:42;100035.50;;;4.81;100.00
64292;BME280;50628;51.008;13.658;2023-04-08T02:14:46;100034.56;;;4.66;100.00
64292;BME280;50628;51.008;13.658;2023-04-08T02:20:03;100039.16;;;4.77;100.00
64292;BME280;50628;51.008;13.658;2023-04-08T02:25:10;100041.78;;;4.93;100.00
64292;BME280;50628;51.008;13.658;2023-04-08T02:30:15;100046.75;;;4.96;100.00
64292;BME280;50628;51.008;13.658;2023-04-08T02:35:18;100034.00;;;4.77;100.00
64292;BME280;50628;51.008;13.658;2023-04-08T02:40:25;100048.28;;;4.67;100.00
64292;BME280;50628;51.008;13.658;2023-04-08T02:45:30;100048.16;;;4.86;100.00
64292;BME280;50628;51.008;13.658;2023-04-08T02:50:32;100041.94;;;5.06;100.00
64292;BME280;50628;51.008;13.658;2023-04-08T02:55:34;100045.13;;;5.11;100.00
64292;BME280;50628;51.008;13.658;2023-04-08T03:00:37;100057.63;;;5.18;100.00
64292;BME280;50628;51.008;13.658;2023-04-08T03:05:39;100058.84;;;5.11;100.00
64292;BME280;50628;51.008;13.658;2023-04-08T03:10:41;100064.75;;;5.13;100.00
64292;BME280;50628;51.008;13.658;2023-04-08T03:15:44;100049.88;;;5.03;100.00
64292;BME280;50628;51.008;13.658;2023-04-08T03:20:46;100052.19;;;4.91;100.00
64292;BME280;50628;51.008;13.658;2023-04-08T03:25:48;100045.09;;;4.79;100.00
64292;BME280;50628;51.008;13.658;2023-04-08T03:30:51;100059.22;;;4.88;100.00
64292;BME280;50628;51.008;13.658;2023-04-08T03:35:53;100058.06;;;4.93;100.00
64292;BME280;50628;51.008;13.658;2023-04-08T03:40:55;100054.09;;;5.04;100.00
64292;BME280;50628;51.008;13.658;2023-04-08T03:45:58;100050.63;;;5.05;100.00
64292;BME280;50628;51.008;13.658;2023-04-08T03:51:00;100053.03;;;5.08;100.00
64292;BME280;50628;51.008;13.658;2023-04-08T03:56:02;100047.34;;;5.01;100.00
64292;BME280;50628;51.008;13.658;2023-04-08T04:01:05;100056.59;;;5.05;100.00
64292;BME280;50628;51.008;13.658;2023-04-08T04:06:07;100060.75;;;4.92;100.00
64292;BME280;50628;51.008;13.658;2023-04-08T04:11:09;100059.16;;;4.89;100.00
64292;BME280;50628;51.008;13.658;2023-04-08T04:16:12;100072.47;;;4.64;100.00
64292;BME280;50628;51.008;13.658;2023-04-08T04:21:14;100070.50;;;4.69;100.00
64292;BME280;50628;51.008;13.658;2023-04-08T04:26:16;100072.81;;;4.91;100.00
64292;BME280;50628;51.008;13.658;2023-04-08T04:31:20;100066.81;;;4.91;100.00
64292;BME280;50628;51.008;13.658;2023-04-08T04:36:22;100082.78;;;4.82;100.00
64292;BME280;50628;51.008;13.658;2023-04-08T04:41:24;100082.78;;;4.82;100.00
64292;BME280;50628;51.008;13.658;2023-04-08T04:46:28;100074.03;;;4.84;100.00
64292;BME280;50628;51.008;13.658;2023-04-08T04:51:30;100086.78;;;4.87;100.00
64292;BME280;50628;51.008;13.658;2023-04-08T04:56:32;100095.09;;;4.92;100.00
64292;BME280;50628;51.008;13.658;2023-04-08T05:01:35;100101.06;;;5.10;100.00
64292;BME280;50628;51.008;13.658;2023-04-08T05:06:37;100101.63;;;4.99;100.00
64292;BME280;50628;51.008;13.658;2023-04-08T05:11:39;100103.28;;;5.01;100.00
64292;BME280;50628;51.008;13.658;2023-04-08T05:16:42;100116.28;;;4.99;100.00
64292;BME280;50628;51.008;13.658;2023-04-08T05:21:44;100107.69;;;4.98;100.00
64292;BME280;50628;51.008;13.658;2023-04-08T05:26:46;100118.00;;;4.98;100.00
64292;BME280;50628;51.008;13.658;2023-04-08T05:31:53;100116.72;;;4.90;100.00
64292;BME280;50628;51.008;13.658;2023-04-08T05:36:55;100114.78;;;5.11;100.00
64292;BME280;50628;51.008;13.658;2023-04-08T05:41:57;100121.88;;;5.07;100.00
64292;BME280;50628;51.008;13.658;2023-04-08T05:47:00;100124.94;;;5.14;100.00
64292;BME280;50628;51.008;13.658;2023-04-08T05:52:02;100131.03;;;5.13;100.00
64292;BME280;50628;51.008;13.658;2023-04-08T05:57:04;100134.94;;;5.04;100.00
64292;BME280;50628;51.008;13.658;2023-04-08T06:02:07;100136.75;;;5.02;100.00
64292;BME280;50628;51.008;13.658;2023-04-08T06:07:09;100131.09;;;5.11;100.00
64292;BME280;50628;51.008;13.658;2023-04-08T06:12:11;100143.59;;;5.19;100.00
64292;BME280;50628;51.008;13.658;2023-04-08T06:17:14;100145.06;;;5.40;100.00
64292;BME280;50628;51.008;13.658;2023-04-08T06:22:16;100149.75;;;5.50;100.00
64292;BME280;50628;51.008;13.658;2023-04-08T06:27:18;100162.50;;;5.53;100.00
64292;BME280;50628;51.008;13.658;2023-04-08T06:32:21;100161.03;;;5.64;100.00
64292;BME280;50628;51.008;13.658;2023-04-08T06:37:23;100164.25;;;5.84;100.00
64292;BME280;50628;51.008;13.658;2023-04-08T06:42:25;100164.19;;;5.85;100.00
64292;BME280;50628;51.008;13.658;2023-04-08T06:47:44;100170.59;;;5.62;100.00
64292;BME280;50628;51.008;13.658;2023-04-08T06:52:45;100180.34;;;5.57;100.00
64292;BME280;50628;51.008;13.658;2023-04-08T06:57:47;100186.91;;;5.79;100.00
64292;BME280;50628;51.008;13.658;2023-04-08T07:02:50;100183.22;;;6.00;100.00
64292;BME280;50628;51.008;13.658;2023-04-08T07:07:52;100197.91;;;6.00;100.00
64292;BME280;50628;51.008;13.658;2023-04-08T07:12:54;100198.31;;;6.08;100.00
64292;BME280;50628;51.008;13.658;2023-04-08T07:17:57;100196.72;;;6.21;100.00
64292;BME280;50628;51.008;13.658;2023-04-08T07:22:59;100208.13;;;6.01;100.00
64292;BME280;50628;51.008;13.658;2023-04-08T07:28:01;100210.72;;;6.17;100.00
64292;BME280;50628;51.008;13.658;2023-04-08T07:33:04;100219.81;;;6.09;100.00
64292;BME280;50628;51.008;13.658;2023-04-08T07:38:06;100228.59;;;5.89;100.00
64292;BME280;50628;51.008;13.658;2023-04-08T07:43:10;100226.22;;;6.17;100.00
64292;BME280;50628;51.008;13.658;2023-04-08T07:48:14;100233.38;;;6.12;100.00
64292;BME280;50628;51.008;13.658;2023-04-08T07:53:15;100238.81;;;6.39;100.00
64292;BME280;50628;51.008;13.658;2023-04-08T07:58:18;100244.63;;;6.59;100.00
64292;BME280;50628;51.008;13.658;2023-04-08T08:03:21;100255.72;;;6.61;100.00
64292;BME280;50628;51.008;13.658;2023-04-08T08:08:23;100250.22;;;6.51;100.00
64292;BME280;50628;51.008;13.658;2023-04-08T08:13:25;100250.88;;;6.55;100.00
64292;BME280;50628;51.008;13.658;2023-04-08T08:18:28;100250.25;;;6.35;100.00
64292;BME280;50628;51.008;13.658;2023-04-08T08:23:30;100254.16;;;6.42;100.00
64292;BME280;50628;51.008;13.658;2023-04-08T08:28:32;100264.41;;;6.44;100.00
64292;BME280;50628;51.008;13.658;2023-04-08T08:33:35;100261.75;;;6.45;100.00
64292;BME280;50628;51.008;13.658;2023-04-08T08:38:37;100269.09;;;6.53;100.00
64292;BME280;50628;51.008;13.658;2023-04-08T08:43:39;100270.56;;;6.57;100.00
64292;BME280;50628;51.008;13.658;2023-04-08T08:48:43;100271.28;;;6.91;100.00
64292;BME280;50628;51.008;13.658;2023-04-08T08:53:45;100277.22;;;7.07;100.00
64292;BME280;50628;51.008;13.658;2023-04-08T08:58:47;100291.56;;;7.13;100.00
64292;BME280;50628;51.008;13.658;2023-04-08T09:04:06;100294.66;;;7.20;100.00
64292;BME280;50628;51.008;13.658;2023-04-08T09:09:08;100299.88;;;7.04;100.00
64292;BME280;50628;51.008;13.658;2023-04-08T09:14:20;100303.50;;;6.85;100.00
64292;BME280;50628;51.008;13.658;2023-04-08T09:19:24;100303.81;;;6.95;100.00
64292;BME280;50628;51.008;13.658;2023-04-08T09:24:27;100311.50;;;7.27;100.00
64292;BME280;50628;51.008;13.658;2023-04-08T09:29:29;100306.78;;;7.19;100.00
64292;BME280;50628;51.008;13.658;2023-04-08T09:34:32;100319.03;;;7.46;100.00
64292;BME280;50628;51.008;13.658;2023-04-08T09:39:34;100319.13;;;7.44;100.00
64292;BME280;50628;51.008;13.658;2023-04-08T09:44:36;100308.09;;;7.10;100.00
64292;BME280;50628;51.008;13.658;2023-04-08T09:49:45;100318.00;;;7.34;100.00
64292;BME280;50628;51.008;13.658;2023-04-08T09:54:53;100319.09;;;7.74;100.00
64292;BME280;50628;51.008;13.658;2023-04-08T10:00:00;100320.66;;;8.06;100.00
64292;BME280;50628;51.008;13.658;2023-04-08T10:05:16;100320.53;;;7.78;100.00
64292;BME280;50628;51.008;13.658;2023-04-08T10:10:19;100313.72;;;7.92;100.00
64292;BME280;50628;51.008;13.658;2023-04-08T10:15:23;100317.78;;;7.67;100.00
64292;BME280;50628;51.008;13.658;2023-04-08T10:20:42;100330.88;;;7.50;100.00
64292;BME280;50628;51.008;13.658;2023-04-08T10:25:46;100327.03;;;7.71;100.00
64292;BME280;50628;51.008;13.658;2023-04-08T10:30:49;100331.38;;;7.56;100.00
64292;BME280;50628;51.008;13.658;2023-04-08T10:35:54;100326.88;;;7.89;100.00
64292;BME280;50628;51.008;13.658;2023-04-08T10:40:59;100326.75;;;7.76;100.00
64292;BME280;50628;51.008;13.658;2023-04-08T10:46:02;100334.00;;;7.99;100.00
64292;BME280;50628;51.008;13.658;2023-04-08T10:51:05;100325.84;;;7.91;100.00
64292;BME280;50628;51.008;13.658;2023-04-08T10:56:08;100331.47;;;7.69;100.00
64292;BME280;50628;51.008;13.658;2023-04-08T11:01:12;100324.44;;;8.00;100.00
64292;BME280;50628;51.008;13.658;2023-04-08T11:06:16;100321.47;;;8.20;100.00
64292;BME280;50628;51.008;13.658;2023-04-08T11:11:18;100324.53;;;8.13;100.00
64292;BME280;50628;51.008;13.658;2023-04-08T11:16:20;100324.16;;;7.90;100.00
64292;BME280;50628;51.008;13.658;2023-04-08T11:21:24;100328.31;;;7.78;100.00
64292;BME280;50628;51.008;13.658;2023-04-08T11:26:29;100344.63;;;7.95;100.00
64292;BME280;50628;51.008;13.658;2023-04-08T11:31:31;100344.91;;;8.05;100.00
64292;BME280;50628;51.008;13.658;2023-04-08T11:36:35;100348.78;;;7.83;100.00
64292;BME280;50628;51.008;13.658;2023-04-08T11:41:38;100355.44;;;7.73;100.00
64292;BME280;50628;51.008;13.658;2023-04-08T11:46:40;100355.69;;;7.54;100.00
64292;BME280;50628;51.008;13.658;2023-04-08T11:51:58;100353.41;;;7.64;100.00
64292;BME280;50628;51.008;13.658;2023-04-08T11:57:00;100358.03;;;7.58;100.00
64292;BME280;50628;51.008;13.658;2023-04-08T12:02:03;100363.91;;;7.46;100.00
64292;BME280;50628;51.008;13.658;2023-04-08T12:07:06;100361.41;;;7.45;100.00
64292;BME280;50628;51.008;13.658;2023-04-08T12:12:08;100353.97;;;7.83;100.00
64292;BME280;50628;51.008;13.658;2023-04-08T12:17:10;100359.81;;;8.30;100.00
64292;BME280;50628;51.008;13.658;2023-04-08T12:22:13;100359.72;;;8.02;100.00
64292;BME280;50628;51.008;13.658;2023-04-08T12:27:15;100371.16;;;7.70;100.00
64292;BME280;50628;51.008;13.658;2023-04-08T12:32:17;100371.84;;;7.43;100.00
64292;BME280;50628;51.008;13.658;2023-04-08T12:37:20;100377.38;;;7.67;100.00
64292;BME280;50628;51.008;13.658;2023-04-08T12:42:22;100385.00;;;7.24;100.00
64292;BME280;50628;51.008;13.658;2023-04-08T12:47:24;100388.50;;;7.39;100.00
64292;BME280;50628;51.008;13.658;2023-04-08T12:52:28;100385.78;;;7.41;100.00
64292;BME280;50628;51.008;13.658;2023-04-08T12:57:29;100381.47;;;7.25;100.00
64292;BME280;50628;51.008;13.658;2023-04-08T13:02:32;100393.13;;;7.02;100.00
64292;BME280;50628;51.008;13.658;2023-04-08T13:07:35;100385.28;;;7.04;100.00
64292;BME280;50628;51.008;13.658;2023-04-08T13:12:37;100399.03;;;7.36;100.00
64292;BME280;50628;51.008;13.658;2023-04-08T13:17:39;100404.41;;;7.01;100.00
64292;BME280;50628;51.008;13.658;2023-04-08T13:22:43;100403.78;;;7.28;100.00
64292;BME280;50628;51.008;13.658;2023-04-08T13:27:44;100406.66;;;6.91;100.00
64292;BME280;50628;51.008;13.658;2023-04-08T13:32:46;100400.19;;;7.61;100.00
64292;BME280;50628;51.008;13.658;2023-04-08T13:37:49;100404.34;;;7.63;100.00
64292;BME280;50628;51.008;13.658;2023-04-08T13:42:51;100407.69;;;7.65;100.00
64292;BME280;50628;51.008;13.658;2023-04-08T13:47:53;100404.22;;;7.80;100.00
64292;BME280;50628;51.008;13.658;2023-04-08T13:52:57;100409.09;;;7.41;100.00
64292;BME280;50628;51.008;13.658;2023-04-08T13:57:59;100401.19;;;7.44;100.00
64292;BME280;50628;51.008;13.658;2023-04-08T14:03:01;100405.56;;;7.11;100.00
64292;BME280;50628;51.008;13.658;2023-04-08T14:08:04;100408.13;;;7.27;100.00
64292;BME280;50628;51.008;13.658;2023-04-08T14:13:06;100418.75;;;7.69;100.00
64292;BME280;50628;51.008;13.658;2023-04-08T14:18:08;100415.41;;;7.81;100.00
64292;BME280;50628;51.008;13.658;2023-04-08T14:23:13;100414.94;;;8.19;100.00
64292;BME280;50628;51.008;13.658;2023-04-08T14:28:16;100418.63;;;7.56;100.00
64292;BME280;50628;51.008;13.658;2023-04-08T14:33:18;100427.59;;;7.65;100.00
64292;BME280;50628;51.008;13.658;2023-04-08T14:38:21;100427.72;;;7.47;100.00
64292;BME280;50628;51.008;13.658;2023-04-08T14:43:23;100425.34;;;7.28;100.00
64292;BME280;50628;51.008;13.658;2023-04-08T14:48:25;100422.09;;;7.55;100.00
64292;BME280;50628;51.008;13.658;2023-04-08T14:53:31;100418.28;;;7.76;100.00
64292;BME280;50628;51.008;13.658;2023-04-08T14:58:33;100423.56;;;7.45;100.00
64292;BME280;50628;51.008;13.658;2023-04-08T15:03:34;100429.78;;;7.26;100.00
64292;BME280;50628;51.008;13.658;2023-04-08T15:08:38;100443.06;;;6.88;100.00
64292;BME280;50628;51.008;13.658;2023-04-08T15:13:39;100444.16;;;6.84;100.00
64292;BME280;50628;51.008;13.658;2023-04-08T15:18:41;100439.81;;;7.01;100.00
64292;BME280;50628;51.008;13.658;2023-04-08T15:23:45;100440.47;;;7.04;100.00
64292;BME280;50628;51.008;13.658;2023-04-08T15:28:46;100443.22;;;7.17;100.00
64292;BME280;50628;51.008;13.658;2023-04-08T15:33:48;100450.91;;;7.19;100.00
64292;BME280;50628;51.008;13.658;2023-04-08T15:38:51;100455.41;;;7.15;100.00
64292;BME280;50628;51.008;13.658;2023-04-08T15:43:53;100457.00;;;7.18;100.00
64292;BME280;50628;51.008;13.658;2023-04-08T15:48:55;100461.84;;;7.24;100.00
64292;BME280;50628;51.008;13.658;2023-04-08T15:53:58;100465.66;;;7.48;100.00
64292;BME280;50628;51.008;13.658;2023-04-08T15:59:00;100471.34;;;7.39;100.00
64292;BME280;50628;51.008;13.658;2023-04-08T16:04:02;100475.13;;;7.33;100.00
64292;BME280;50628;51.008;13.658;2023-04-08T16:09:05;100468.22;;;7.64;100.00
64292;BME280;50628;51.008;13.658;2023-04-08T16:14:09;100484.63;;;7.49;100.00
64292;BME280;50628;51.008;13.658;2023-04-08T16:19:12;100489.81;;;7.17;100.00
64292;BME280;50628;51.008;13.658;2023-04-08T16:24:15;100493.88;;;6.74;100.00
64292;BME280;50628;51.008;13.658;2023-04-08T16:29:19;100498.41;;;6.86;100.00
64292;BME280;50628;51.008;13.658;2023-04-08T16:34:22;100505.31;;;6.52;100.00
64292;BME280;50628;51.008;13.658;2023-04-08T16:39:25;100506.59;;;6.78;100.00
64292;BME280;50628;51.008;13.658;2023-04-08T16:44:27;100513.34;;;6.81;100.00
64292;BME280;50628;51.008;13.658;2023-04-08T16:49:29;100519.47;;;6.62;100.00
64292;BME280;50628;51.008;13.658;2023-04-08T16:54:32;100518.34;;;6.84;100.00
64292;BME280;50628;51.008;13.658;2023-04-08T16:59:34;100523.97;;;6.59;100.00
64292;BME280;50628;51.008;13.658;2023-04-08T17:04:36;100526.13;;;6.50;100.00
64292;BME280;50628;51.008;13.658;2023-04-08T17:09:39;100534.31;;;6.59;100.00
64292;BME280;50628;51.008;13.658;2023-04-08T17:14:41;100535.38;;;6.55;100.00
64292;BME280;50628;51.008;13.658;2023-04-08T17:19:43;100546.09;;;6.64;100.00
64292;BME280;50628;51.008;13.658;2023-04-08T17:24:46;100540.72;;;6.52;100.00
64292;BME280;50628;51.008;13.658;2023-04-08T17:29:48;100545.59;;;6.58;100.00
64292;BME280;50628;51.008;13.658;2023-04-08T17:34:55;100552.00;;;6.33;100.00
64292;BME280;50628;51.008;13.658;2023-04-08T17:39:58;100556.56;;;6.45;100.00
64292;BME280;50628;51.008;13.658;2023-04-08T17:45:00;100558.97;;;6.48;100.00
64292;BME280;50628;51.008;13.658;2023-04-08T17:50:02;100559.03;;;6.64;100.00
64292;BME280;50628;51.008;13.658;2023-04-08T17:55:07;100565.41;;;6.57;100.00
64292;BME280;50628;51.008;13.658;2023-04-08T18:00:09;100579.06;;;6.61;100.00
64292;BME280;50628;51.008;13.658;2023-04-08T18:05:12;100582.91;;;6.35;100.00
64292;BME280;50628;51.008;13.658;2023-04-08T18:10:16;100591.72;;;5.96;100.00
64292;BME280;50628;51.008;13.658;2023-04-08T18:15:18;100593.03;;;6.22;100.00
64292;BME280;50628;51.008;13.658;2023-04-08T18:20:20;100598.91;;;6.43;100.00
64292;BME280;50628;51.008;13.658;2023-04-08T18:25:29;100610.31;;;6.56;100.00
64292;BME280;50628;51.008;13.658;2023-04-08T18:30:31;100616.25;;;6.58;100.00
64292;BME280;50628;51.008;13.658;2023-04-08T18:35:33;100614.56;;;6.57;100.00
64292;BME280;50628;51.008;13.658;2023-04-08T18:40:36;100623.25;;;6.39;100.00
64292;BME280;50628;51.008;13.658;2023-04-08T18:45:38;100625.28;;;6.32;100.00
64292;BME280;50628;51.008;13.658;2023-04-08T18:50:40;100630.09;;;6.22;100.00
64292;BME280;50628;51.008;13.658;2023-04-08T18:55:43;100638.50;;;6.26;100.00
64292;BME280;50628;51.008;13.658;2023-04-08T19:00:45;100639.28;;;6.28;100.00
64292;BME280;50628;51.008;13.658;2023-04-08T19:05:47;100651.97;;;6.15;100.00
64292;BME280;50628;51.008;13.658;2023-04-08T19:10:51;100642.53;;;6.32;100.00
64292;BME280;50628;51.008;13.658;2023-04-08T19:15:52;100647.25;;;6.23;100.00
64292;BME280;50628;51.008;13.658;2023-04-08T19:20:54;100653.22;;;6.06;100.00
64292;BME280;50628;51.008;13.658;2023-04-08T19:25:57;100639.81;;;5.79;100.00
64292;BME280;50628;51.008;13.658;2023-04-08T19:31:00;100654.13;;;5.86;100.00
64292;BME280;50628;51.008;13.658;2023-04-08T19:36:02;100642.97;;;6.05;100.00
64292;BME280;50628;51.008;13.658;2023-04-08T19:41:05;100647.06;;;6.09;100.00
64292;BME280;50628;51.008;13.658;2023-04-08T19:46:07;100645.53;;;5.86;100.00
64292;BME280;50628;51.008;13.658;2023-04-08T19:51:13;100647.28;;;5.85;100.00
64292;BME280;50628;51.008;13.658;2023-04-08T19:56:17;100658.25;;;5.72;100.00
64292;BME280;50628;51.008;13.658;2023-04-08T20:01:19;100655.38;;;5.59;100.00
64292;BME280;50628;51.008;13.658;2023-04-08T20:06:21;100660.34;;;5.45;100.00
64292;BME280;50628;51.008;13.658;2023-04-08T20:11:24;100668.97;;;5.25;100.00
64292;BME280;50628;51.008;13.658;2023-04-08T20:16:26;100668.19;;;5.23;100.00
64292;BME280;50628;51.008;13.658;2023-04-08T20:21:28;100678.13;;;5.11;100.00
64292;BME280;50628;51.008;13.658;2023-04-08T20:26:31;100672.28;;;4.67;100.00
64292;BME280;50628;51.008;13.658;2023-04-08T20:31:33;100662.00;;;4.65;100.00
64292;BME280;50628;51.008;13.658;2023-04-08T20:36:35;100668.72;;;4.69;100.00
64292;BME280;50628;51.008;13.658;2023-04-08T20:41:39;100664.31;;;4.51;100.00
64292;BME280;50628;51.008;13.658;2023-04-08T20:46:40;100656.22;;;4.38;100.00
64292;BME280;50628;51.008;13.658;2023-04-08T20:51:42;100663.53;;;4.28;100.00
64292;BME280;50628;51.008;13.658;2023-04-08T20:56:45;100671.53;;;4.21;100.00
64292;BME280;50628;51.008;13.658;2023-04-08T21:01:47;100677.59;;;4.20;100.00
64292;BME280;50628;51.008;13.658;2023-04-08T21:06:49;100669.50;;;4.07;100.00
64292;BME280;50628;51.008;13.658;2023-04-08T21:11:52;100670.03;;;4.15;100.00
64292;BME280;50628;51.008;13.658;2023-04-08T21:16:54;100679.50;;;3.93;100.00
64292;BME280;50628;51.008;13.658;2023-04-08T21:21:56;100703.19;;;3.55;100.00
64292;BME280;50628;51.008;13.658;2023-04-08T21:27:00;100707.16;;;3.40;100.00
64292;BME280;50628;51.008;13.658;2023-04-08T21:32:02;100696.13;;;3.37;100.00
64292;BME280;50628;51.008;13.658;2023-04-08T21:37:03;100688.28;;;2.91;100.00
64292;BME280;50628;51.008;13.658;2023-04-08T21:42:07;100704.50;;;3.18;100.00
64292;BME280;50628;51.008;13.658;2023-04-08T21:47:08;100717.78;;;3.06;100.00
64292;BME280;50628;51.008;13.658;2023-04-08T21:52:10;100720.50;;;3.01;100.00
64292;BME280;50628;51.008;13.658;2023-04-08T21:57:14;100717.50;;;2.89;100.00
64292;BME280;50628;51.008;13.658;2023-04-08T22:02:15;100709.25;;;3.04;100.00
64292;BME280;50628;51.008;13.658;2023-04-08T22:07:17;100713.56;;;2.78;100.00
64292;BME280;50628;51.008;13.658;2023-04-08T22:12:21;100700.91;;;2.72;100.00
64292;BME280;50628;51.008;13.658;2023-04-08T22:17:22;100697.97;;;2.56;100.00
64292;BME280;50628;51.008;13.658;2023-04-08T22:22:24;100696.09;;;2.62;100.00
64292;BME280;50628;51.008;13.658;2023-04-08T22:27:28;100698.91;;;2.54;100.00
64292;BME280;50628;51.008;13.658;2023-04-08T22:32:30;100693.75;;;2.55;100.00
64292;BME280;50628;51.008;13.658;2023-04-08T22:37:31;100690.72;;;2.43;100.00
64292;BME280;50628;51.008;13.658;2023-04-08T22:42:35;100697.06;;;2.31;100.00
64292;BME280;50628;51.008;13.658;2023-04-08T22:47:37;100685.78;;;2.63;100.00
64292;BME280;50628;51.008;13.658;2023-04-08T22:52:38;100686.53;;;2.12;100.00
64292;BME280;50628;51.008;13.658;2023-04-08T22:57:42;100683.94;;;2.40;100.00
64292;BME280;50628;51.008;13.658;2023-04-08T23:02:44;100683.56;;;2.24;100.00
64292;BME280;50628;51.008;13.658;2023-04-08T23:07:46;100685.31;;;1.95;100.00
64292;BME280;50628;51.008;13.658;2023-04-08T23:12:49;100693.56;;;2.33;100.00
64292;BME280;50628;51.008;13.658;2023-04-08T23:17:51;100693.72;;;2.29;100.00
64292;BME280;50628;51.008;13.658;2023-04-08T23:22:53;100695.09;;;2.12;100.00
64292;BME280;50628;51.008;13.658;2023-04-08T23:27:56;100689.84;;;1.58;100.00
64292;BME280;50628;51.008;13.658;2023-04-08T23:32:58;100692.09;;;1.39;100.00
64292;BME280;50628;51.008;13.658;2023-04-08T23:38:00;100697.88;;;1.45;100.00
64292;BME280;50628;51.008;13.658;2023-04-08T23:43:03;100703.41;;;1.61;100.00
64292;BME280;50628;51.008;13.658;2023-04-08T23:48:05;100703.94;;;1.74;100.00
64292;BME280;50628;51.008;13.658;2023-04-08T23:53:07;100708.13;;;1.45;100.00
64292;BME280;50628;51.008;13.658;2023-04-08T23:58:10;100709.31;;;1.34;100.00
